createdAt,value
2023-05-17T00:00:45.762Z,99.99
2023-05-17T00:01:45.738Z,99.99
2023-05-17T00:02:45.771Z,99.99
2023-05-17T00:03:45.775Z,99.99
2023-05-17T00:04:45.791Z,99.99
2023-05-17T00:05:45.741Z,99.99
2023-05-17T00:06:45.680Z,99.99
2023-05-17T00:07:45.676Z,99.99
2023-05-17T00:08:45.689Z,99.99
2023-05-17T00:09:45.646Z,99.99
2023-05-17T00:10:45.629Z,99.99
2023-05-17T00:11:45.626Z,99.99
2023-05-17T00:12:45.612Z,99.99
2023-05-17T00:13:45.667Z,99.99
2023-05-17T00:14:45.612Z,99.99
2023-05-17T00:15:45.585Z,99.99
2023-05-17T00:16:45.586Z,99.99
2023-05-17T00:17:45.645Z,99.99
2023-05-17T00:18:45.800Z,99.99
2023-05-17T00:19:45.602Z,99.99
2023-05-17T00:20:45.547Z,99.99
2023-05-17T00:21:45.522Z,99.99
2023-05-17T00:22:45.551Z,99.99
2023-05-17T00:23:45.497Z,99.99
2023-05-17T00:24:45.487Z,99.99
2023-05-17T00:25:45.486Z,99.99
2023-05-17T00:26:45.462Z,99.99
2023-05-17T00:27:45.479Z,99.99
2023-05-17T00:28:45.439Z,99.99
2023-05-17T00:29:45.415Z,99.99
2023-05-17T00:30:45.413Z,99.99
2023-05-17T00:31:45.402Z,99.99
2023-05-17T00:32:45.491Z,99.99
2023-05-17T00:33:45.380Z,99.99
2023-05-17T00:34:45.437Z,99.99
2023-05-17T00:35:45.349Z,99.99
2023-05-17T00:36:45.373Z,99.99
2023-05-17T00:37:45.396Z,99.99
2023-05-17T00:38:45.328Z,99.99
2023-05-17T00:39:45.344Z,99.99
2023-05-17T00:40:45.289Z,99.99
2023-05-17T00:41:45.320Z,99.99
2023-05-17T00:42:45.272Z,99.99
2023-05-17T00:43:45.279Z,99.99
2023-05-17T00:44:45.275Z,99.99
2023-05-17T00:45:45.245Z,99.99
2023-05-17T00:46:45.254Z,99.99
2023-05-17T00:47:45.326Z,99.99
2023-05-17T00:48:45.235Z,99.99
2023-05-17T00:49:45.203Z,99.99
2023-05-17T00:50:45.230Z,99.99
2023-05-17T00:51:45.234Z,99.99
2023-05-17T00:52:45.173Z,99.99
2023-05-17T00:53:45.155Z,99.99
2023-05-17T00:54:45.149Z,99.99
2023-05-17T00:55:45.173Z,99.99
2023-05-17T00:56:45.116Z,99.99
2023-05-17T00:57:45.105Z,99.99
2023-05-17T00:58:45.100Z,99.99
2023-05-17T00:59:45.118Z,99.99
2023-05-17T01:00:45.114Z,99.99
2023-05-17T01:01:45.052Z,99.99
2023-05-17T01:02:45.161Z,99.99
2023-05-17T01:03:45.129Z,99.99
2023-05-17T01:04:45.099Z,99.99
2023-05-17T01:05:45.054Z,99.99
2023-05-17T01:06:45.002Z,99.99
2023-05-17T01:07:45.007Z,99.99
2023-05-17T01:08:44.992Z,99.99
2023-05-17T01:09:45.006Z,99.99
2023-05-17T01:10:44.969Z,99.99
2023-05-17T01:11:44.951Z,99.99
2023-05-17T01:12:44.946Z,99.99
2023-05-17T01:13:44.922Z,99.99
2023-05-17T01:14:44.952Z,99.99
2023-05-17T01:15:44.903Z,99.99
2023-05-17T01:16:44.893Z,99.99
2023-05-17T01:17:44.944Z,99.99
2023-05-17T01:18:45.153Z,99.99
2023-05-17T01:19:45.047Z,99.99
2023-05-17T01:20:44.864Z,99.99
2023-05-17T01:21:44.828Z,99.99
2023-05-17T01:22:44.828Z,99.99
2023-05-17T01:23:44.857Z,99.99
2023-05-17T01:24:44.850Z,99.99
2023-05-17T01:25:44.791Z,99.99
2023-05-17T01:26:44.786Z,99.99
2023-05-17T01:27:44.758Z,99.99
2023-05-17T01:28:44.802Z,99.99
2023-05-17T01:29:44.787Z,99.99
2023-05-17T01:30:44.738Z,99.99
2023-05-17T01:31:44.705Z,99.99
2023-05-17T01:32:44.754Z,99.99
2023-05-17T01:33:44.822Z,99.99
2023-05-17T01:34:44.698Z,99.99
2023-05-17T01:35:44.674Z,99.99
2023-05-17T01:36:44.675Z,99.99
2023-05-17T01:37:44.651Z,99.99
2023-05-17T01:38:44.677Z,99.99
2023-05-17T01:39:44.638Z,99.99
2023-05-17T01:40:44.633Z,99.99
2023-05-17T01:41:44.618Z,99.99
2023-05-17T01:42:44.647Z,99.99
2023-05-17T01:43:44.604Z,99.99
2023-05-17T01:44:44.574Z,99.99
2023-05-17T01:45:44.599Z,99.99
2023-05-17T01:46:44.574Z,99.99
2023-05-17T01:47:44.603Z,99.99
2023-05-17T01:48:44.565Z,99.99
2023-05-17T01:49:44.546Z,99.99
2023-05-17T01:50:44.514Z,99.99
2023-05-17T01:51:44.489Z,99.99
2023-05-17T01:52:44.516Z,99.99
2023-05-17T01:53:44.474Z,99.99
2023-05-17T01:54:44.476Z,99.99
2023-05-17T01:55:44.468Z,99.99
2023-05-17T01:56:44.473Z,99.99
2023-05-17T01:57:44.550Z,99.99
2023-05-17T01:58:44.422Z,99.99
2023-05-17T01:59:44.402Z,99.99
2023-05-17T02:00:44.442Z,99.99
2023-05-17T02:01:44.408Z,99.99
2023-05-17T02:02:44.412Z,99.99
2023-05-17T02:03:44.412Z,99.99
2023-05-17T02:04:44.409Z,99.99
2023-05-17T02:05:44.338Z,99.99
2023-05-17T02:06:44.374Z,99.99
2023-05-17T02:07:44.315Z,99.99
2023-05-17T02:08:44.304Z,99.99
2023-05-17T02:09:44.291Z,99.99
2023-05-17T02:10:44.278Z,99.99
2023-05-17T02:11:44.322Z,99.99
2023-05-17T02:12:44.261Z,99.99
2023-05-17T02:13:44.244Z,99.99
2023-05-17T02:14:44.242Z,99.99
2023-05-17T02:15:44.262Z,99.99
2023-05-17T02:16:44.219Z,99.99
2023-05-17T02:17:44.250Z,99.99
2023-05-17T02:18:44.249Z,99.99
2023-05-17T02:19:44.191Z,99.99
2023-05-17T02:20:44.219Z,99.99
2023-05-17T02:21:44.174Z,99.99
2023-05-17T02:22:44.140Z,99.99
2023-05-17T02:23:44.161Z,99.99
2023-05-17T02:24:44.163Z,99.99
2023-05-17T02:25:44.153Z,99.99
2023-05-17T02:26:44.106Z,99.99
2023-05-17T02:27:44.113Z,99.99
2023-05-17T02:28:44.091Z,99.99
2023-05-17T02:29:44.107Z,99.99
2023-05-17T02:30:44.065Z,99.99
2023-05-17T02:31:44.077Z,99.99
2023-05-17T02:32:44.123Z,99.99
2023-05-17T02:33:44.079Z,99.99
2023-05-17T02:34:44.039Z,99.99
2023-05-17T02:35:44.020Z,99.99
2023-05-17T02:36:43.990Z,99.99
2023-05-17T02:37:44.004Z,99.99
2023-05-17T02:38:43.968Z,99.99
2023-05-17T02:39:44.009Z,99.99
2023-05-17T02:40:43.944Z,99.99
2023-05-17T02:41:43.947Z,99.99
2023-05-17T02:42:43.914Z,99.99
2023-05-17T02:43:43.979Z,99.99
2023-05-17T02:44:44.015Z,99.99
2023-05-17T02:45:43.889Z,99.99
2023-05-17T02:46:43.878Z,99.99
2023-05-17T02:47:43.969Z,99.99
2023-05-17T02:48:43.901Z,99.99
2023-05-17T02:49:43.845Z,99.99
2023-05-17T02:50:43.904Z,99.99
2023-05-17T02:51:43.837Z,99.99
2023-05-17T02:52:43.803Z,99.99
2023-05-17T02:53:43.837Z,99.99
2023-05-17T02:54:43.796Z,99.99
2023-05-17T02:55:43.797Z,99.99
2023-05-17T02:56:43.792Z,99.99
2023-05-17T02:57:43.801Z,99.99
2023-05-17T02:58:43.799Z,99.99
2023-05-17T02:59:43.742Z,99.99
2023-05-17T03:00:43.719Z,99.99
2023-05-17T03:01:43.719Z,99.99
2023-05-17T03:02:43.777Z,99.99
2023-05-17T03:03:43.925Z,99.99
2023-05-17T03:04:43.737Z,99.99
2023-05-17T03:05:43.673Z,99.99
2023-05-17T03:06:43.652Z,99.99
2023-05-17T03:07:43.675Z,99.99
2023-05-17T03:08:43.615Z,99.99
2023-05-17T03:09:43.610Z,99.99
2023-05-17T03:10:43.614Z,99.99
2023-05-17T03:11:43.643Z,99.99
2023-05-17T03:12:43.636Z,99.99
2023-05-17T03:13:43.650Z,99.99
2023-05-17T03:14:43.569Z,99.99
2023-05-17T03:15:43.570Z,99.99
2023-05-17T03:16:43.595Z,99.99
2023-05-17T03:17:43.594Z,99.99
2023-05-17T03:18:43.615Z,99.99
2023-05-17T03:19:43.589Z,99.99
2023-05-17T03:20:43.506Z,99.99
2023-05-17T03:21:43.535Z,99.99
2023-05-17T03:22:43.492Z,99.99
2023-05-17T03:23:43.470Z,99.99
2023-05-17T03:24:43.476Z,99.99
2023-05-17T03:25:43.472Z,99.99
2023-05-17T03:26:43.470Z,99.99
2023-05-17T03:27:43.496Z,99.99
2023-05-17T03:28:43.420Z,99.99
2023-05-17T03:29:43.404Z,99.99
2023-05-17T03:30:43.488Z,99.99
2023-05-17T03:31:43.405Z,99.99
2023-05-17T03:32:43.399Z,99.99
2023-05-17T03:33:43.618Z,99.99
2023-05-17T03:34:43.334Z,99.99
2023-05-17T03:35:43.389Z,99.99
2023-05-17T03:36:43.325Z,99.99
2023-05-17T03:37:43.312Z,99.99
2023-05-17T03:38:43.309Z,99.99
2023-05-17T03:39:43.325Z,99.99
2023-05-17T03:40:43.303Z,99.99
2023-05-17T03:41:43.282Z,99.99
2023-05-17T03:42:43.240Z,99.99
2023-05-17T03:43:43.271Z,99.99
2023-05-17T03:44:43.253Z,99.99
2023-05-17T03:45:43.230Z,99.99
2023-05-17T03:46:43.201Z,99.99
2023-05-17T03:47:43.370Z,99.99
2023-05-17T03:48:43.227Z,99.99
2023-05-17T03:49:43.201Z,99.99
2023-05-17T03:50:43.162Z,99.99
2023-05-17T03:51:43.160Z,99.99
2023-05-17T03:52:43.136Z,99.99
2023-05-17T03:53:43.178Z,99.99
2023-05-17T03:54:43.156Z,99.99
2023-05-17T03:55:43.115Z,99.99
2023-05-17T03:56:43.113Z,99.99
2023-05-17T03:57:43.101Z,99.99
2023-05-17T03:58:43.104Z,99.99
2023-05-17T03:59:43.072Z,99.99
2023-05-17T04:00:43.060Z,99.99
2023-05-17T04:01:43.057Z,99.99
2023-05-17T04:02:43.085Z,99.99
2023-05-17T04:03:43.084Z,99.99
2023-05-17T04:04:43.035Z,99.99
2023-05-17T04:05:43.001Z,99.99
2023-05-17T04:06:43.023Z,99.99
2023-05-17T04:07:43.023Z,99.99
2023-05-17T04:08:42.994Z,99.99
2023-05-17T04:09:42.946Z,99.76
2023-05-17T04:10:42.965Z,99.04
2023-05-17T04:11:42.929Z,98.57
2023-05-17T04:12:42.950Z,98.01
2023-05-17T04:13:42.931Z,98.01
2023-05-17T04:14:42.887Z,98.11
2023-05-17T04:15:42.890Z,98.22
2023-05-17T04:16:42.885Z,98.94
2023-05-17T04:17:42.916Z,99.15
2023-05-17T04:18:43.023Z,99.15
2023-05-17T04:19:42.951Z,99.15
2023-05-17T04:20:42.829Z,99.46
2023-05-17T04:21:42.839Z,99.82
2023-05-17T04:22:42.831Z,99.66
2023-05-17T04:23:42.777Z,99.77
2023-05-17T04:24:42.792Z,99.98
2023-05-17T04:25:42.790Z,99.98
2023-05-17T04:26:42.789Z,99.99
2023-05-17T04:27:42.748Z,99.99
2023-05-17T04:28:42.817Z,99.99
2023-05-17T04:29:42.721Z,99.99
2023-05-17T04:30:42.740Z,99.99
2023-05-17T04:31:42.751Z,99.99
2023-05-17T04:32:42.716Z,99.99
2023-05-17T04:33:42.744Z,99.99
2023-05-17T04:34:42.660Z,99.99
2023-05-17T04:35:42.735Z,99.99
2023-05-17T04:36:42.649Z,99.99
2023-05-17T04:37:42.667Z,99.99
2023-05-17T04:38:42.623Z,99.99
2023-05-17T04:39:42.609Z,99.99
2023-05-17T04:40:42.663Z,99.99
2023-05-17T04:41:42.588Z,99.99
2023-05-17T04:42:42.597Z,99.99
2023-05-17T04:43:42.571Z,99.99
2023-05-17T04:44:42.548Z,99.99
2023-05-17T04:45:42.651Z,99.99
2023-05-17T04:46:42.627Z,99.99
2023-05-17T04:47:42.563Z,99.99
2023-05-17T04:48:42.593Z,99.99
2023-05-17T04:49:42.544Z,99.99
2023-05-17T04:50:42.516Z,99.99
2023-05-17T04:51:42.473Z,99.99
2023-05-17T04:52:42.489Z,99.99
2023-05-17T04:53:42.457Z,99.99
2023-05-17T04:54:42.463Z,99.64
2023-05-17T04:55:42.450Z,99.23
2023-05-17T04:56:42.415Z,97.78
2023-05-17T04:57:42.405Z,96.97
2023-05-17T04:58:42.412Z,95.84
2023-05-17T04:59:42.423Z,95.75
2023-05-17T05:00:42.364Z,92.95
2023-05-17T05:01:42.357Z,91.69
2023-05-17T05:02:42.417Z,88.02
2023-05-17T05:03:42.462Z,86.36
2023-05-17T05:04:42.400Z,83.66
2023-05-17T05:05:42.338Z,82.84
2023-05-17T05:06:42.305Z,81.91
2023-05-17T05:07:42.279Z,80.28
2023-05-17T05:08:42.304Z,80.27
2023-05-17T05:09:42.279Z,80.33
2023-05-17T05:10:42.276Z,78.53
2023-05-17T05:11:42.270Z,74.69
2023-05-17T05:12:42.240Z,77.48
2023-05-17T05:13:42.272Z,77.62
2023-05-17T05:14:42.224Z,77.95
2023-05-17T05:15:42.217Z,77.14
2023-05-17T05:16:42.231Z,77.10
2023-05-17T05:17:42.245Z,75.20
2023-05-17T05:18:42.332Z,73.87
2023-05-17T05:19:42.184Z,74.85
2023-05-17T05:20:42.136Z,74.24
2023-05-17T05:21:42.129Z,74.62
2023-05-17T05:22:42.150Z,76.18
2023-05-17T05:23:43.051Z,73.23
2023-05-17T05:24:42.310Z,73.46
2023-05-17T05:25:42.096Z,72.48
2023-05-17T05:26:42.068Z,72.58
2023-05-17T05:27:42.096Z,73.63
2023-05-17T05:28:42.069Z,73.77
2023-05-17T05:29:42.052Z,74.41
2023-05-17T05:30:42.020Z,75.54
2023-05-17T05:31:42.099Z,77.61
2023-05-17T05:32:42.082Z,76.22
2023-05-17T05:33:42.084Z,76.62
2023-05-17T05:34:41.988Z,77.14
2023-05-17T05:35:41.977Z,78.16
2023-05-17T05:36:42.016Z,76.32
2023-05-17T05:37:41.958Z,76.62
2023-05-17T05:38:41.979Z,77.68
2023-05-17T05:39:41.952Z,76.62
2023-05-17T05:40:41.944Z,77.47
2023-05-17T05:41:41.939Z,74.25
2023-05-17T05:42:41.890Z,76.15
2023-05-17T05:43:41.882Z,76.07
2023-05-17T05:44:41.869Z,74.52
2023-05-17T05:45:41.848Z,72.38
2023-05-17T05:46:41.880Z,72.65
2023-05-17T05:47:41.914Z,71.91
2023-05-17T05:48:41.975Z,69.27
2023-05-17T05:49:41.869Z,68.46
2023-05-17T05:50:41.839Z,67.99
2023-05-17T05:51:41.817Z,68.59
2023-05-17T05:52:41.780Z,69.30
2023-05-17T05:53:41.794Z,70.18
2023-05-17T05:54:41.770Z,69.91
2023-05-17T05:55:41.789Z,69.92
2023-05-17T05:56:41.752Z,67.49
2023-05-17T05:57:41.767Z,66.38
2023-05-17T05:58:41.700Z,65.12
2023-05-17T05:59:41.719Z,67.55
2023-05-17T06:00:41.738Z,66.44
2023-05-17T06:01:41.712Z,67.05
2023-05-17T06:02:41.682Z,67.31
2023-05-17T06:03:41.671Z,68.09
2023-05-17T06:04:45.754Z,66.74
2023-05-17T06:05:41.825Z,67.76
2023-05-17T06:06:41.760Z,66.81
2023-05-17T06:07:41.621Z,66.18
2023-05-17T06:08:41.690Z,64.73
2023-05-17T06:09:41.640Z,64.59
2023-05-17T06:10:41.573Z,64.46
2023-05-17T06:11:41.578Z,64.19
2023-05-17T06:12:41.579Z,64.70
2023-05-17T06:13:41.557Z,63.55
2023-05-17T06:14:41.577Z,64.48
2023-05-17T06:15:42.392Z,68.43
2023-05-17T06:16:41.515Z,66.20
2023-05-17T06:17:41.657Z,66.47
2023-05-17T06:18:41.606Z,67.62
2023-05-17T06:19:41.548Z,67.89
2023-05-17T06:20:41.481Z,67.11
2023-05-17T06:21:41.601Z,67.49
2023-05-17T06:22:41.467Z,66.61
2023-05-17T06:23:41.466Z,66.88
2023-05-17T06:24:41.445Z,67.43
2023-05-17T06:25:41.408Z,65.23
2023-05-17T06:26:41.426Z,65.59
2023-05-17T06:27:41.407Z,67.05
2023-05-17T06:28:41.429Z,64.42
2023-05-17T06:29:41.402Z,65.40
2023-05-17T06:30:41.390Z,65.14
2023-05-17T06:31:41.366Z,62.35
2023-05-17T06:32:41.456Z,62.12
2023-05-17T06:33:41.424Z,63.36
2023-05-17T06:34:41.336Z,62.31
2023-05-17T06:35:54.760Z,64.67
2023-05-17T06:36:42.280Z,64.37
2023-05-17T06:37:41.342Z,61.01
2023-05-17T06:38:41.269Z,61.44
2023-05-17T06:39:42.613Z,62.71
2023-05-17T06:40:41.268Z,63.76
2023-05-17T06:41:41.235Z,62.90
2023-05-17T06:42:41.264Z,59.52
2023-05-17T06:43:41.214Z,60.60
2023-05-17T06:44:41.213Z,60.55
2023-05-17T06:45:41.184Z,61.25
2023-05-17T06:46:41.187Z,60.21
2023-05-17T06:47:41.325Z,61.99
2023-05-17T06:48:41.262Z,60.97
2023-05-17T06:49:41.134Z,62.31
2023-05-17T06:50:41.128Z,61.98
2023-05-17T06:51:41.148Z,62.45
2023-05-17T06:52:41.140Z,63.30
2023-05-17T06:53:41.078Z,58.81
2023-05-17T06:54:41.066Z,60.10
2023-05-17T06:55:41.085Z,61.00
2023-05-17T06:56:41.130Z,61.85
2023-05-17T06:57:41.216Z,61.47
2023-05-17T06:58:41.069Z,61.57
2023-05-17T06:59:41.027Z,64.34
2023-05-17T07:00:41.027Z,59.84
2023-05-17T07:01:41.054Z,61.05
2023-05-17T07:02:41.077Z,60.93
2023-05-17T07:03:41.057Z,61.36
2023-05-17T07:04:41.028Z,60.83
2023-05-17T07:05:41.028Z,59.22
2023-05-17T07:06:40.997Z,59.55
2023-05-17T07:07:40.936Z,58.11
2023-05-17T07:08:41.766Z,57.93
2023-05-17T07:09:40.934Z,59.50
2023-05-17T07:10:40.968Z,62.93
2023-05-17T07:11:40.902Z,61.16
2023-05-17T07:12:40.900Z,59.48
2023-05-17T07:13:40.878Z,58.88
2023-05-17T07:14:40.860Z,58.47
2023-05-17T07:15:40.873Z,59.92
2023-05-17T07:16:40.849Z,60.45
2023-05-17T07:17:40.840Z,58.84
2023-05-17T07:18:40.864Z,60.67
2023-05-17T07:19:41.050Z,57.82
2023-05-17T07:20:40.827Z,57.53
2023-05-17T07:21:40.773Z,57.17
2023-05-17T07:22:40.779Z,58.22
2023-05-17T07:23:40.750Z,62.27
2023-05-17T07:24:40.794Z,60.75
2023-05-17T07:25:40.747Z,60.96
2023-05-17T07:26:40.748Z,63.08
2023-05-17T07:27:40.718Z,60.35
2023-05-17T07:28:40.706Z,62.34
2023-05-17T07:29:40.713Z,60.52
2023-05-17T07:30:40.686Z,63.95
2023-05-17T07:31:40.869Z,62.90
2023-05-17T07:32:40.720Z,63.84
2023-05-17T07:33:40.682Z,64.19
2023-05-17T07:34:40.697Z,61.88
2023-05-17T07:35:40.628Z,60.39
2023-05-17T07:36:40.676Z,59.61
2023-05-17T07:37:40.613Z,61.83
2023-05-17T07:38:41.409Z,61.63
2023-05-17T07:39:40.584Z,60.26
2023-05-17T07:40:40.594Z,58.52
2023-05-17T07:41:40.572Z,59.20
2023-05-17T07:42:40.579Z,57.12
2023-05-17T07:43:40.614Z,56.24
2023-05-17T07:44:40.513Z,57.21
2023-05-17T07:45:40.766Z,56.93
2023-05-17T07:46:40.558Z,58.97
2023-05-17T07:47:40.632Z,59.52
2023-05-17T07:48:40.691Z,55.00
2023-05-17T07:49:40.457Z,55.91
2023-05-17T07:50:40.481Z,53.57
2023-05-17T07:51:40.448Z,54.55
2023-05-17T07:52:40.496Z,52.51
2023-05-17T07:53:40.626Z,53.37
2023-05-17T07:54:44.764Z,52.32
2023-05-17T07:55:40.398Z,53.14
2023-05-17T07:56:40.405Z,53.95
2023-05-17T07:57:40.433Z,53.32
2023-05-17T07:58:40.389Z,51.84
2023-05-17T07:59:41.174Z,52.84
2023-05-17T08:00:40.366Z,52.97
2023-05-17T08:01:40.340Z,53.63
2023-05-17T08:02:40.397Z,53.47
2023-05-17T08:03:40.332Z,53.60
2023-05-17T08:04:40.349Z,56.70
2023-05-17T08:05:40.328Z,57.92
2023-05-17T08:06:40.324Z,58.07
2023-05-17T08:07:41.263Z,57.74
2023-05-17T08:08:40.278Z,57.39
2023-05-17T08:09:40.284Z,60.17
2023-05-17T08:10:40.252Z,58.28
2023-05-17T08:11:40.265Z,58.28
2023-05-17T08:12:40.226Z,58.56
2023-05-17T08:13:40.211Z,59.67
2023-05-17T08:14:40.186Z,60.77
2023-05-17T08:15:40.176Z,60.39
2023-05-17T08:16:40.221Z,62.07
2023-05-17T08:17:40.202Z,62.94
2023-05-17T08:18:40.373Z,63.78
2023-05-17T08:19:40.257Z,64.49
2023-05-17T08:20:40.152Z,64.97
2023-05-17T08:21:40.150Z,66.36
2023-05-17T08:22:40.102Z,63.06
2023-05-17T08:23:40.101Z,59.09
2023-05-17T08:24:40.109Z,59.58
2023-05-17T08:25:40.111Z,54.33
2023-05-17T08:26:40.051Z,57.70
2023-05-17T08:27:40.048Z,59.75
2023-05-17T08:28:40.057Z,59.55
2023-05-17T08:29:40.010Z,57.09
2023-05-17T08:30:40.060Z,56.70
2023-05-17T08:31:39.996Z,54.94
2023-05-17T08:32:40.047Z,57.29
2023-05-17T08:33:40.036Z,57.14
2023-05-17T08:34:40.043Z,56.94
2023-05-17T08:35:44.138Z,57.52
2023-05-17T08:36:39.963Z,58.38
2023-05-17T08:37:39.946Z,59.41
2023-05-17T08:38:39.903Z,54.21
2023-05-17T08:39:39.991Z,51.49
2023-05-17T08:40:39.924Z,50.23
2023-05-17T08:41:40.691Z,49.83
2023-05-17T08:42:39.881Z,48.58
2023-05-17T08:43:39.865Z,50.34
2023-05-17T08:44:39.899Z,48.30
2023-05-17T08:45:39.869Z,50.81
2023-05-17T08:46:39.841Z,51.18
2023-05-17T08:47:39.973Z,52.97
2023-05-17T08:48:39.835Z,55.77
2023-05-17T08:49:39.825Z,57.82
2023-05-17T08:50:39.815Z,58.56
2023-05-17T08:51:39.774Z,57.54
2023-05-17T08:52:39.823Z,56.42
2023-05-17T08:53:39.751Z,51.09
2023-05-17T08:54:39.805Z,53.27
2023-05-17T08:55:40.930Z,55.28
2023-05-17T08:56:39.724Z,50.98
2023-05-17T08:57:39.709Z,55.11
2023-05-17T08:58:52.346Z,52.64
2023-05-17T08:59:40.731Z,52.92
2023-05-17T09:00:39.688Z,54.33
2023-05-17T09:01:39.643Z,57.28
2023-05-17T09:02:39.757Z,54.71
2023-05-17T09:03:39.702Z,53.85
2023-05-17T09:04:39.815Z,50.96
2023-05-17T09:05:39.665Z,53.40
2023-05-17T09:06:39.639Z,50.35
2023-05-17T09:07:39.613Z,50.08
2023-05-17T09:08:39.624Z,54.28
2023-05-17T09:09:39.585Z,51.94
2023-05-17T09:10:39.564Z,54.05
2023-05-17T09:11:39.574Z,52.29
2023-05-17T09:12:39.565Z,50.06
2023-05-17T09:13:39.574Z,50.59
2023-05-17T09:14:39.513Z,51.49
2023-05-17T09:15:39.547Z,50.16
2023-05-17T09:16:39.511Z,48.05
2023-05-17T09:17:39.498Z,50.03
2023-05-17T09:18:39.663Z,51.26
2023-05-17T09:19:39.574Z,52.89
2023-05-17T09:20:39.489Z,54.08
2023-05-17T09:21:39.457Z,51.14
2023-05-17T09:22:39.497Z,50.21
2023-05-17T09:23:39.461Z,48.38
2023-05-17T09:24:39.439Z,47.27
2023-05-17T09:25:39.418Z,46.62
2023-05-17T09:26:39.424Z,45.12
2023-05-17T09:27:39.415Z,43.70
2023-05-17T09:28:39.425Z,46.08
2023-05-17T09:29:39.365Z,44.87
2023-05-17T09:30:39.399Z,45.23
2023-05-17T09:31:39.358Z,47.89
2023-05-17T09:32:39.389Z,48.96
2023-05-17T09:33:39.402Z,51.54
2023-05-17T09:34:39.314Z,47.97
2023-05-17T09:35:39.304Z,50.46
2023-05-17T09:36:39.411Z,46.73
2023-05-17T09:37:39.326Z,48.30
2023-05-17T09:38:39.339Z,48.58
2023-05-17T09:39:39.275Z,48.07
2023-05-17T09:40:39.277Z,47.06
2023-05-17T09:41:39.309Z,46.70
2023-05-17T09:42:39.249Z,49.60
2023-05-17T09:43:39.195Z,51.89
2023-05-17T09:44:39.197Z,53.70
2023-05-17T09:45:39.216Z,51.79
2023-05-17T09:46:39.258Z,51.89
2023-05-17T09:47:39.284Z,51.11
2023-05-17T09:48:39.399Z,49.05
2023-05-17T09:49:39.150Z,48.34
2023-05-17T09:50:39.126Z,48.17
2023-05-17T09:51:39.170Z,46.09
2023-05-17T09:52:39.145Z,47.14
2023-05-17T09:53:39.087Z,50.53
2023-05-17T09:54:39.087Z,45.01
2023-05-17T09:55:39.420Z,45.91
2023-05-17T09:56:39.152Z,45.73
2023-05-17T09:57:39.056Z,46.53
2023-05-17T09:58:39.056Z,48.21
2023-05-17T09:59:39.061Z,47.66
2023-05-17T10:00:39.066Z,46.28
2023-05-17T10:01:39.018Z,47.94
2023-05-17T10:02:39.040Z,44.81
2023-05-17T10:03:39.213Z,44.60
2023-05-17T10:04:39.047Z,47.58
2023-05-17T10:05:39.166Z,48.46
2023-05-17T10:06:47.525Z,45.36
2023-05-17T10:07:39.947Z,42.07
2023-05-17T10:08:38.910Z,43.80
2023-05-17T10:09:38.955Z,44.65
2023-05-17T10:10:38.954Z,45.37
2023-05-17T10:11:38.915Z,45.53
2023-05-17T10:12:38.890Z,43.48
2023-05-17T10:13:38.871Z,43.54
2023-05-17T10:14:38.942Z,44.82
2023-05-17T10:15:38.831Z,39.39
2023-05-17T10:16:38.857Z,41.82
2023-05-17T10:17:38.848Z,42.40
2023-05-17T10:18:38.849Z,40.29
2023-05-17T10:19:38.954Z,43.46
2023-05-17T10:20:38.789Z,41.82
2023-05-17T10:21:38.785Z,42.49
2023-05-17T10:22:38.780Z,41.47
2023-05-17T10:23:38.796Z,40.09
2023-05-17T10:24:38.796Z,40.47
2023-05-17T10:25:38.776Z,42.88
2023-05-17T10:26:38.773Z,42.27
2023-05-17T10:27:38.724Z,41.07
2023-05-17T10:28:38.783Z,42.18
2023-05-17T10:29:38.703Z,43.40
2023-05-17T10:30:38.695Z,44.16
2023-05-17T10:31:38.707Z,40.81
2023-05-17T10:32:38.717Z,43.24
2023-05-17T10:33:38.857Z,41.93
2023-05-17T10:34:38.709Z,42.27
2023-05-17T10:35:39.387Z,41.88
2023-05-17T10:36:38.676Z,41.09
2023-05-17T10:37:38.683Z,42.91
2023-05-17T10:38:42.291Z,39.76
2023-05-17T10:39:38.887Z,43.51
2023-05-17T10:40:38.635Z,44.59
2023-05-17T10:41:38.612Z,46.96
2023-05-17T10:42:38.604Z,49.44
2023-05-17T10:43:38.571Z,48.84
2023-05-17T10:44:38.596Z,45.05
2023-05-17T10:45:38.547Z,48.41
2023-05-17T10:46:38.519Z,47.83
2023-05-17T10:47:38.581Z,46.65
2023-05-17T10:48:38.569Z,46.94
2023-05-17T10:49:38.505Z,47.97
2023-05-17T10:50:39.558Z,51.43
2023-05-17T10:51:38.481Z,50.85
2023-05-17T10:52:38.501Z,49.22
2023-05-17T10:53:38.428Z,48.65
2023-05-17T10:54:38.458Z,45.49
2023-05-17T10:55:38.421Z,45.34
2023-05-17T10:56:38.420Z,44.06
2023-05-17T10:57:50.643Z,43.90
2023-05-17T10:58:39.409Z,45.01
2023-05-17T10:59:38.374Z,44.46
2023-05-17T11:00:38.382Z,45.39
2023-05-17T11:01:38.717Z,47.92
2023-05-17T11:02:38.404Z,45.75
2023-05-17T11:03:38.327Z,46.81
2023-05-17T11:04:38.449Z,44.48
2023-05-17T11:05:38.366Z,44.62
2023-05-17T11:06:38.526Z,45.83
2023-05-17T11:07:38.301Z,43.24
2023-05-17T11:08:38.266Z,42.86
2023-05-17T11:09:38.281Z,41.33
2023-05-17T11:10:38.284Z,46.46
2023-05-17T11:11:38.306Z,44.20
2023-05-17T11:12:40.529Z,41.07
2023-05-17T11:13:38.219Z,41.29
2023-05-17T11:14:38.178Z,41.96
2023-05-17T11:15:38.216Z,39.51
2023-05-17T11:16:38.202Z,39.39
2023-05-17T11:17:38.207Z,39.49
2023-05-17T11:18:39.869Z,40.31
2023-05-17T11:19:38.371Z,40.37
2023-05-17T11:20:38.820Z,41.43
2023-05-17T11:21:38.202Z,40.70
2023-05-17T11:22:38.133Z,43.76
2023-05-17T11:23:38.123Z,41.77
2023-05-17T11:24:38.123Z,41.46
2023-05-17T11:25:38.162Z,38.27
2023-05-17T11:26:38.076Z,42.03
2023-05-17T11:27:38.095Z,40.97
2023-05-17T11:28:38.067Z,39.07
2023-05-17T11:29:39.558Z,42.16
2023-05-17T11:30:38.104Z,39.69
2023-05-17T11:31:38.068Z,37.74
2023-05-17T11:32:38.036Z,37.74
2023-05-17T11:33:38.164Z,39.90
2023-05-17T11:34:38.086Z,43.08
2023-05-17T11:35:38.018Z,40.87
2023-05-17T11:36:37.980Z,39.98
2023-05-17T11:37:37.948Z,40.45
2023-05-17T11:38:37.959Z,38.81
2023-05-17T11:39:38.027Z,38.31
2023-05-17T11:40:37.929Z,36.38
2023-05-17T11:41:37.909Z,39.39
2023-05-17T11:42:37.915Z,37.25
2023-05-17T11:43:37.888Z,36.38
2023-05-17T11:44:37.895Z,35.31
2023-05-17T11:45:37.871Z,37.32
2023-05-17T11:46:37.862Z,37.05
2023-05-17T11:47:37.912Z,37.96
2023-05-17T11:48:38.024Z,38.16
2023-05-17T11:49:37.891Z,38.84
2023-05-17T11:50:37.830Z,39.54
2023-05-17T11:51:37.821Z,39.28
2023-05-17T11:52:37.808Z,38.92
2023-05-17T11:53:37.825Z,40.61
2023-05-17T11:54:37.824Z,41.01
2023-05-17T11:55:37.776Z,40.67
2023-05-17T11:56:43.699Z,39.93
2023-05-17T11:57:40.500Z,38.51
2023-05-17T11:58:37.791Z,36.96
2023-05-17T11:59:37.740Z,39.43
2023-05-17T12:00:37.754Z,40.22
2023-05-17T12:01:37.714Z,37.10
2023-05-17T12:02:37.756Z,36.98
2023-05-17T12:03:37.748Z,34.81
2023-05-17T12:04:37.780Z,36.53
2023-05-17T12:05:37.665Z,36.05
2023-05-17T12:06:37.718Z,35.06
2023-05-17T12:07:37.781Z,35.08
2023-05-17T12:08:37.623Z,36.92
2023-05-17T12:09:37.631Z,37.34
2023-05-17T12:10:37.592Z,38.44
2023-05-17T12:11:37.617Z,38.70
2023-05-17T12:12:37.638Z,37.02
2023-05-17T12:13:37.563Z,35.69
2023-05-17T12:14:37.552Z,37.92
2023-05-17T12:15:37.565Z,38.12
2023-05-17T12:16:37.598Z,37.74
2023-05-17T12:17:37.813Z,38.26
2023-05-17T12:18:37.670Z,38.72
2023-05-17T12:19:37.708Z,38.40
2023-05-17T12:20:37.490Z,37.08
2023-05-17T12:21:37.555Z,35.11
2023-05-17T12:22:37.495Z,39.80
2023-05-17T12:23:37.483Z,38.01
2023-05-17T12:24:37.574Z,39.72
2023-05-17T12:25:37.533Z,40.36
2023-05-17T12:26:37.480Z,38.21
2023-05-17T12:27:37.450Z,40.30
2023-05-17T12:28:37.433Z,38.34
2023-05-17T12:29:37.414Z,40.01
2023-05-17T12:30:37.483Z,39.17
2023-05-17T12:31:37.410Z,36.10
2023-05-17T12:32:37.491Z,38.49
2023-05-17T12:33:37.495Z,38.49
2023-05-17T12:34:37.349Z,37.96
2023-05-17T12:35:37.391Z,37.96
2023-05-17T12:36:37.485Z,36.50
2023-05-17T12:37:37.332Z,36.93
2023-05-17T12:38:37.315Z,37.76
2023-05-17T12:39:37.315Z,36.55
2023-05-17T12:40:37.318Z,36.73
2023-05-17T12:41:37.271Z,39.21
2023-05-17T12:42:37.260Z,38.89
2023-05-17T12:43:37.253Z,39.05
2023-05-17T12:44:37.252Z,36.73
2023-05-17T12:45:37.306Z,35.66
2023-05-17T12:46:37.242Z,36.53
2023-05-17T12:47:37.257Z,37.21
2023-05-17T12:48:37.260Z,35.55
2023-05-17T12:49:37.243Z,37.05
2023-05-17T12:50:37.197Z,37.03
2023-05-17T12:51:37.197Z,34.43
2023-05-17T12:52:37.162Z,35.99